Time;durP1;ratioP1;P1;durP2;ratioP2;P2;SDS_P1;SDS_P2;PMS_P1;PMS_P2;Temp;Humidity;BMP_temperature;BMP_pressure;BME280_temperature;BME280_humidity;BME280_pressure;Samples;Min_cycle;Max_cycle;Signal;HPM_P1;HPM_P2
2021/08/31 00:00:55;;;;;;;9.03;4.93;;;;;;;;;;5026153;28;20169;-80
2021/08/31 00:03:20;;;;;;;9.33;5.07;;;;;;;;;;5027280;28;20494;-80
2021/08/31 00:05:46;;;;;;;8.90;5.40;;;;;;;;;;5026529;28;20280;-80
2021/08/31 00:08:11;;;;;;;11.73;3.97;;;;;;;;;;5027457;28;20180;-80
2021/08/31 00:10:36;;;;;;;9.40;4.43;;;;;;;;;;5026486;28;20773;-80
2021/08/31 00:13:02;;;;;;;8.77;4.67;;;;;;;;;;5027114;28;20200;-80
2021/08/31 00:15:27;;;;;;;7.43;4.43;;;;;;;;;;5027109;28;20208;-80
2021/08/31 00:17:53;;;;;;;8.50;4.60;;;;;;;;;;5026951;28;20196;-80
2021/08/31 00:20:18;;;;;;;7.50;4.37;;;;;;;;;;5025454;28;20176;-80
2021/08/31 00:22:43;;;;;;;11.90;5.00;;;;;;;;;;5025311;28;20204;-80
2021/08/31 00:25:08;;;;;;;12.60;4.77;;;;;;;;;;5024920;28;20203;-80
2021/08/31 00:27:34;;;;;;;7.60;5.13;;;;;;;;;;5024278;28;20183;-80
2021/08/31 00:29:59;;;;;;;9.87;5.00;;;;;;;;;;5025121;28;20177;-80
2021/08/31 00:32:25;;;;;;;9.50;5.17;;;;;;;;;;5024541;28;20179;-80
2021/08/31 00:34:51;;;;;;;9.17;5.60;;;;;;;;;;5023782;28;20366;-80
2021/08/31 00:37:16;;;;;;;12.03;5.20;;;;;;;;;;5022186;28;20246;-80
2021/08/31 00:39:41;;;;;;;9.63;4.70;;;;;;;;;;5024021;28;20916;-80
2021/08/31 00:42:08;;;;;;;10.30;5.10;;;;;;;;;;5025227;28;20165;-80
2021/08/31 00:44:34;;;;;;;11.63;5.67;;;;;;;;;;5024651;28;20216;-80
2021/08/31 00:46:59;;;;;;;7.50;4.90;;;;;;;;;;5023469;28;20412;-80
2021/08/31 00:49:25;;;;;;;10.40;5.20;;;;;;;;;;5024085;28;20268;-80
2021/08/31 00:51:51;;;;;;;12.43;5.80;;;;;;;;;;5024643;28;20189;-80
2021/08/31 00:54:18;;;;;;;8.80;4.57;;;;;;;;;;5023827;28;20208;-80
2021/08/31 00:56:50;;;;;;;11.07;5.70;;;;;;;;;;5022582;28;20463;-80
2021/08/31 00:59:19;;;;;;;9.60;5.30;;;;;;;;;;5019956;28;20490;-80
2021/08/31 01:01:48;;;;;;;12.67;5.60;;;;;;;;;;5023791;28;20916;-80
2021/08/31 01:04:13;;;;;;;11.30;5.17;;;;;;;;;;5020405;28;20955;-80
2021/08/31 01:06:38;;;;;;;8.70;4.73;;;;;;;;;;5022035;28;20408;-80
2021/08/31 01:09:04;;;;;;;10.37;5.60;;;;;;;;;;5022243;28;20648;-80
2021/08/31 01:11:29;;;;;;;9.17;4.97;;;;;;;;;;5023067;28;20188;-80
2021/08/31 01:13:55;;;;;;;10.40;4.67;;;;;;;;;;5023834;28;20183;-80
2021/08/31 01:16:20;;;;;;;15.23;5.57;;;;;;;;;;5022618;28;20282;-80
2021/08/31 01:18:45;;;;;;;8.97;5.90;;;;;;;;;;5023328;28;20179;-80
2021/08/31 01:21:11;;;;;;;9.03;4.90;;;;;;;;;;5022702;28;20177;-80
2021/08/31 01:23:37;;;;;;;11.70;5.37;;;;;;;;;;5023595;28;20234;-80
2021/08/31 01:26:02;;;;;;;10.50;5.80;;;;;;;;;;5023019;28;20464;-80
2021/08/31 01:28:29;;;;;;;12.03;5.57;;;;;;;;;;5023571;28;20676;-80
2021/08/31 01:30:57;;;;;;;9.57;5.47;;;;;;;;;;5023607;28;20259;-80
2021/08/31 01:33:24;;;;;;;12.73;5.63;;;;;;;;;;5023619;28;20800;-80
2021/08/31 01:35:49;;;;;;;9.23;5.00;;;;;;;;;;5022130;28;20911;-80
2021/08/31 01:38:14;;;;;;;6.43;5.07;;;;;;;;;;5022598;28;20462;-80
2021/08/31 01:40:40;;;;;;;10.50;5.20;;;;;;;;;;5024517;28;20296;-80
2021/08/31 01:43:05;;;;;;;10.33;6.03;;;;;;;;;;5024322;28;20573;-80
2021/08/31 01:45:43;;;;;;;9.83;5.53;;;;;;;;;;5022251;28;20193;-80
2021/08/31 01:48:08;;;;;;;10.43;5.93;;;;;;;;;;5023417;28;20247;-80
2021/08/31 01:50:33;;;;;;;8.30;5.93;;;;;;;;;;5023851;28;20904;-80
2021/08/31 01:52:58;;;;;;;11.53;5.97;;;;;;;;;;5023880;28;20181;-80
2021/08/31 01:55:24;;;;;;;11.17;6.50;;;;;;;;;;5022382;28;20695;-80
2021/08/31 01:57:49;;;;;;;11.70;5.90;;;;;;;;;;5023293;28;20570;-80
2021/08/31 02:00:14;;;;;;;13.43;6.07;;;;;;;;;;5022481;28;20185;-80
2021/08/31 02:02:39;;;;;;;11.67;5.60;;;;;;;;;;5024010;28;20177;-80
2021/08/31 02:05:05;;;;;;;9.87;6.20;;;;;;;;;;5021448;28;20275;-80
2021/08/31 02:07:30;;;;;;;9.63;5.90;;;;;;;;;;5027953;28;20679;-80
2021/08/31 02:09:56;;;;;;;7.83;6.00;;;;;;;;;;5028241;28;20260;-80
2021/08/31 02:12:21;;;;;;;11.53;5.97;;;;;;;;;;5031329;28;20211;-80
2021/08/31 02:14:46;;;;;;;10.50;6.07;;;;;;;;;;5029001;28;20741;-80
2021/08/31 02:17:11;;;;;;;10.43;5.97;;;;;;;;;;5029480;28;20569;-80
2021/08/31 02:19:37;;;;;;;11.20;5.20;;;;;;;;;;5030276;28;20200;-80
2021/08/31 02:22:02;;;;;;;9.60;5.80;;;;;;;;;;5029387;28;20181;-80
2021/08/31 02:24:27;;;;;;;10.40;6.03;;;;;;;;;;5028085;28;20703;-80
2021/08/31 02:26:52;;;;;;;10.53;5.63;;;;;;;;;;5029583;28;20206;-80
2021/08/31 02:29:19;;;;;;;9.30;5.70;;;;;;;;;;5028962;28;20179;-80
2021/08/31 02:31:44;;;;;;;7.83;5.53;;;;;;;;;;5027145;28;20184;-80
2021/08/31 02:34:10;;;;;;;15.73;5.80;;;;;;;;;;5027428;28;20426;-80
2021/08/31 02:36:35;;;;;;;7.30;5.40;;;;;;;;;;5026348;28;20554;-80
2021/08/31 02:39:00;;;;;;;13.87;6.13;;;;;;;;;;5026517;28;20169;-80
2021/08/31 02:41:25;;;;;;;12.40;6.40;;;;;;;;;;5041080;28;20172;-80
2021/08/31 02:43:51;;;;;;;9.67;5.63;;;;;;;;;;5026453;28;20176;-80
2021/08/31 02:46:16;;;;;;;18.00;6.40;;;;;;;;;;5024462;28;20681;-80
2021/08/31 02:48:43;;;;;;;13.23;6.00;;;;;;;;;;5026381;28;20509;-80
2021/08/31 02:51:09;;;;;;;10.07;5.93;;;;;;;;;;5020581;28;20181;-80
2021/08/31 02:53:34;;;;;;;14.03;6.23;;;;;;;;;;5024843;28;20434;-80
2021/08/31 02:55:59;;;;;;;10.00;6.33;;;;;;;;;;5025394;28;20255;-79
2021/08/31 02:58:24;;;;;;;8.10;5.80;;;;;;;;;;5025892;28;20676;-80
2021/08/31 03:01:03;;;;;;;10.07;5.50;;;;;;;;;;5026236;28;20177;-80
2021/08/31 03:03:29;;;;;;;11.13;5.57;;;;;;;;;;5025744;28;20169;-80
2021/08/31 03:05:54;;;;;;;11.20;5.50;;;;;;;;;;5027119;28;20435;-80
2021/08/31 03:08:19;;;;;;;11.43;7.00;;;;;;;;;;5026949;28;20684;-80
2021/08/31 03:10:44;;;;;;;15.23;6.87;;;;;;;;;;5025568;28;20604;-80
2021/08/31 03:13:10;;;;;;;9.43;6.43;;;;;;;;;;5025104;28;20180;-79
2021/08/31 03:15:35;;;;;;;11.30;6.10;;;;;;;;;;5039434;28;20243;-80
2021/08/31 03:18:00;;;;;;;10.03;6.30;;;;;;;;;;5021875;28;20235;-79
2021/08/31 03:20:26;;;;;;;12.70;6.43;;;;;;;;;;5021916;28;20537;-80
2021/08/31 03:22:51;;;;;;;10.83;6.77;;;;;;;;;;5023089;28;20201;-80
2021/08/31 03:25:17;;;;;;;10.33;6.17;;;;;;;;;;5026055;28;21560;-80
2021/08/31 03:27:42;;;;;;;11.90;5.90;;;;;;;;;;5025781;28;20218;-80
2021/08/31 03:30:07;;;;;;;9.70;5.83;;;;;;;;;;5024368;28;20173;-80
2021/08/31 03:32:32;;;;;;;8.87;5.83;;;;;;;;;;5025886;28;20172;-80
2021/08/31 03:34:58;;;;;;;8.70;6.30;;;;;;;;;;5025192;28;20710;-80
2021/08/31 03:37:23;;;;;;;9.80;5.67;;;;;;;;;;5025400;28;20227;-80
2021/08/31 03:39:48;;;;;;;8.93;5.73;;;;;;;;;;5023073;28;20169;-80
2021/08/31 03:42:14;;;;;;;11.03;6.10;;;;;;;;;;5025377;28;20184;-80
2021/08/31 03:44:39;;;;;;;12.97;5.90;;;;;;;;;;5040630;28;20193;-80
2021/08/31 03:47:04;;;;;;;8.57;6.10;;;;;;;;;;5025486;28;20181;-80
2021/08/31 03:49:29;;;;;;;10.07;6.27;;;;;;;;;;5024405;28;20180;-80
2021/08/31 03:51:54;;;;;;;9.63;5.67;;;;;;;;;;5022776;28;20265;-80
2021/08/31 03:54:20;;;;;;;10.10;6.27;;;;;;;;;;5024803;28;20205;-80
2021/08/31 03:56:45;;;;;;;11.10;6.00;;;;;;;;;;5022154;28;20201;-80
2021/08/31 03:59:10;;;;;;;10.50;6.90;;;;;;;;;;5022345;28;20315;-80
2021/08/31 04:01:35;;;;;;;9.80;5.80;;;;;;;;;;5023029;28;20176;-80
2021/08/31 04:04:01;;;;;;;10.17;7.10;;;;;;;;;;5023330;28;20231;-80
2021/08/31 04:06:26;;;;;;;12.93;8.23;;;;;;;;;;5024741;28;20659;-80
2021/08/31 04:08:51;;;;;;;10.77;6.67;;;;;;;;;;5023562;28;20165;-80
2021/08/31 04:11:16;;;;;;;8.17;6.30;;;;;;;;;;5024944;28;20172;-80
2021/08/31 04:13:42;;;;;;;7.63;6.00;;;;;;;;;;5023927;28;20176;-80
2021/08/31 04:16:07;;;;;;;7.27;6.03;;;;;;;;;;5023610;28;20239;-80
2021/08/31 04:18:32;;;;;;;7.60;6.13;;;;;;;;;;5023688;28;20857;-80
2021/08/31 04:20:57;;;;;;;9.50;6.30;;;;;;;;;;5024382;28;20215;-80
2021/08/31 04:23:23;;;;;;;13.37;6.63;;;;;;;;;;5026476;28;20175;-80
2021/08/31 04:25:48;;;;;;;12.93;5.70;;;;;;;;;;5024069;28;20204;-80
2021/08/31 04:28:13;;;;;;;9.00;5.80;;;;;;;;;;5026084;28;20205;-80
2021/08/31 04:30:39;;;;;;;8.40;5.70;;;;;;;;;;5021674;28;20514;-80
2021/08/31 04:33:04;;;;;;;7.00;6.03;;;;;;;;;;5022760;28;20185;-80
2021/08/31 04:35:29;;;;;;;8.90;6.47;;;;;;;;;;5022763;28;20247;-80
2021/08/31 04:37:54;;;;;;;11.20;6.80;;;;;;;;;;5024179;28;20200;-80
2021/08/31 04:40:20;;;;;;;7.07;5.20;;;;;;;;;;5023384;28;20220;-80
2021/08/31 04:42:45;;;;;;;6.87;6.03;;;;;;;;;;5024581;28;20232;-80
2021/08/31 04:45:11;;;;;;;8.03;5.60;;;;;;;;;;5023448;28;20255;-80
2021/08/31 04:47:36;;;;;;;9.87;6.27;;;;;;;;;;5025045;28;20173;-80
2021/08/31 04:50:01;;;;;;;7.90;6.10;;;;;;;;;;5024585;28;20176;-80
2021/08/31 04:52:26;;;;;;;10.03;6.30;;;;;;;;;;5023771;28;20180;-80
2021/08/31 04:54:52;;;;;;;7.20;6.00;;;;;;;;;;5023488;28;20543;-80
2021/08/31 04:57:17;;;;;;;7.60;5.97;;;;;;;;;;5024204;28;21073;-80
2021/08/31 04:59:42;;;;;;;8.10;6.37;;;;;;;;;;5022806;28;20168;-80
2021/08/31 05:02:07;;;;;;;8.20;5.93;;;;;;;;;;5022036;28;20172;-80
2021/08/31 05:04:33;;;;;;;9.70;6.47;;;;;;;;;;5022886;28;20203;-80
2021/08/31 05:06:58;;;;;;;9.70;6.30;;;;;;;;;;5023235;28;20641;-80
2021/08/31 05:09:23;;;;;;;8.27;6.27;;;;;;;;;;5023432;28;20192;-80
2021/08/31 05:11:49;;;;;;;9.40;6.30;;;;;;;;;;5024552;28;20173;-80
2021/08/31 05:14:14;;;;;;;7.73;6.33;;;;;;;;;;5023560;28;20205;-80
2021/08/31 05:16:39;;;;;;;8.97;6.20;;;;;;;;;;5022755;28;20191;-80
2021/08/31 05:19:05;;;;;;;7.60;6.47;;;;;;;;;;5022820;28;20242;-80
2021/08/31 05:21:30;;;;;;;10.30;6.00;;;;;;;;;;5024248;28;20230;-80
2021/08/31 05:23:56;;;;;;;6.63;5.80;;;;;;;;;;5023326;28;20181;-80
2021/08/31 05:26:21;;;;;;;9.27;6.30;;;;;;;;;;5023544;28;20192;-80
2021/08/31 05:28:46;;;;;;;12.30;6.10;;;;;;;;;;5023725;28;20187;-80
2021/08/31 05:31:12;;;;;;;8.90;6.33;;;;;;;;;;5023274;28;20172;-80
2021/08/31 05:33:37;;;;;;;9.10;5.57;;;;;;;;;;5022252;28;20268;-80
2021/08/31 05:36:02;;;;;;;10.23;6.07;;;;;;;;;;5022967;28;20197;-80
2021/08/31 05:38:27;;;;;;;10.13;5.33;;;;;;;;;;5022853;28;20204;-80
2021/08/31 05:40:54;;;;;;;10.10;6.30;;;;;;;;;;5023813;28;20172;-80
2021/08/31 05:43:19;;;;;;;10.70;5.80;;;;;;;;;;5025803;28;20184;-80
2021/08/31 05:45:44;;;;;;;10.30;5.90;;;;;;;;;;5026566;28;20423;-80
2021/08/31 05:48:09;;;;;;;10.83;5.60;;;;;;;;;;5028339;28;20275;-80
2021/08/31 05:50:35;;;;;;;7.13;5.23;;;;;;;;;;5028768;28;20175;-80
2021/08/31 05:53:00;;;;;;;9.47;5.13;;;;;;;;;;5026369;28;20181;-80
2021/08/31 05:55:25;;;;;;;7.93;5.33;;;;;;;;;;5026678;28;20222;-80
2021/08/31 05:57:50;;;;;;;9.23;5.30;;;;;;;;;;5026089;28;20204;-80
2021/08/31 06:00:16;;;;;;;10.73;5.40;;;;;;;;;;5026197;28;20204;-80
2021/08/31 06:02:44;;;;;;;7.43;5.53;;;;;;;;;;5027257;28;20166;-80
2021/08/31 06:05:11;;;;;;;8.77;5.37;;;;;;;;;;5026582;28;20851;-80
2021/08/31 06:07:39;;;;;;;8.70;5.67;;;;;;;;;;5027054;28;20443;-80
2021/08/31 06:10:04;;;;;;;11.03;5.90;;;;;;;;;;5025981;28;20907;-80
2021/08/31 06:12:30;;;;;;;9.97;5.00;;;;;;;;;;5025922;28;20422;-80
2021/08/31 06:14:55;;;;;;;7.60;5.47;;;;;;;;;;5023541;28;20192;-80
2021/08/31 06:17:22;;;;;;;11.50;5.40;;;;;;;;;;5025163;28;20205;-80
2021/08/31 06:19:47;;;;;;;7.60;4.90;;;;;;;;;;5026973;28;20169;-80
2021/08/31 06:22:12;;;;;;;6.83;4.90;;;;;;;;;;5027055;28;20408;-80
2021/08/31 06:24:38;;;;;;;10.10;6.03;;;;;;;;;;5028033;28;20200;-80
2021/08/31 06:27:04;;;;;;;11.20;5.07;;;;;;;;;;5027798;28;20268;-81
2021/08/31 06:29:29;;;;;;;9.57;5.43;;;;;;;;;;5026650;28;20238;-80
2021/08/31 06:31:57;;;;;;;6.43;4.93;;;;;;;;;;5027304;28;20418;-80
2021/08/31 06:34:23;;;;;;;10.77;4.80;;;;;;;;;;5024975;28;20258;-80
2021/08/31 06:36:48;;;;;;;12.93;5.60;;;;;;;;;;5025767;28;20412;-80
2021/08/31 06:39:14;;;;;;;9.00;4.47;;;;;;;;;;5025970;28;20199;-80
2021/08/31 06:41:39;;;;;;;12.90;4.50;;;;;;;;;;5026861;28;20638;-80
2021/08/31 06:44:04;;;;;;;10.23;5.00;;;;;;;;;;5024655;28;20169;-80
2021/08/31 06:46:30;;;;;;;9.00;4.97;;;;;;;;;;5023856;28;20177;-80
2021/08/31 06:48:55;;;;;;;9.20;5.00;;;;;;;;;;5026104;28;20183;-80
2021/08/31 06:51:20;;;;;;;9.23;4.70;;;;;;;;;;5025412;28;20168;-80
2021/08/31 06:53:46;;;;;;;10.30;5.00;;;;;;;;;;5025627;28;20165;-80
2021/08/31 06:56:11;;;;;;;8.63;4.67;;;;;;;;;;5023531;28;20223;-80
2021/08/31 06:58:36;;;;;;;5.27;4.10;;;;;;;;;;5030332;28;20633;-80
2021/08/31 07:01:01;;;;;;;9.53;4.50;;;;;;;;;;5029300;28;20177;-80
2021/08/31 07:03:27;;;;;;;5.73;4.30;;;;;;;;;;5029222;28;20638;-80
2021/08/31 07:05:52;;;;;;;8.37;4.80;;;;;;;;;;5028291;28;20220;-80
2021/08/31 07:08:17;;;;;;;8.53;5.50;;;;;;;;;;5025305;28;21114;-80
2021/08/31 07:10:43;;;;;;;12.73;6.37;;;;;;;;;;5025145;28;20259;-80
2021/08/31 07:13:08;;;;;;;7.43;5.90;;;;;;;;;;5024602;28;20184;-80
2021/08/31 07:15:33;;;;;;;7.93;5.30;;;;;;;;;;5026490;28;20271;-80
2021/08/31 07:17:59;;;;;;;7.20;5.90;;;;;;;;;;5023585;28;20617;-80
2021/08/31 07:20:24;;;;;;;8.50;5.73;;;;;;;;;;5022851;28;20245;-80
2021/08/31 07:22:50;;;;;;;11.83;6.13;;;;;;;;;;5023900;28;20199;-80
2021/08/31 07:25:15;;;;;;;7.90;5.03;;;;;;;;;;5020070;28;20205;-80
2021/08/31 07:27:40;;;;;;;9.60;5.43;;;;;;;;;;5023482;28;20207;-80
2021/08/31 07:30:06;;;;;;;10.97;6.43;;;;;;;;;;5024191;28;20547;-80
2021/08/31 07:32:31;;;;;;;9.83;6.70;;;;;;;;;;5040456;28;20178;-80
2021/08/31 07:34:56;;;;;;;6.67;5.50;;;;;;;;;;5024948;28;20192;-80
2021/08/31 07:37:22;;;;;;;8.60;5.47;;;;;;;;;;5024834;28;20616;-80
2021/08/31 07:39:47;;;;;;;7.90;5.30;;;;;;;;;;5025941;28;20183;-79
2021/08/31 07:42:12;;;;;;;6.33;5.13;;;;;;;;;;5025699;28;20168;-80
2021/08/31 07:44:37;;;;;;;10.37;5.77;;;;;;;;;;5025032;28;20224;-80
2021/08/31 07:47:03;;;;;;;7.30;5.30;;;;;;;;;;5025523;28;20173;-80
2021/08/31 07:49:28;;;;;;;8.50;5.87;;;;;;;;;;5025286;28;20645;-80
2021/08/31 07:51:53;;;;;;;10.33;5.50;;;;;;;;;;5025813;28;20203;-80
2021/08/31 07:54:19;;;;;;;7.17;4.40;;;;;;;;;;5025087;28;20200;-80
2021/08/31 07:56:44;;;;;;;5.93;4.37;;;;;;;;;;5023995;28;20188;-80
2021/08/31 07:59:09;;;;;;;9.03;4.20;;;;;;;;;;5022546;28;20252;-80
2021/08/31 08:01:35;;;;;;;6.53;4.20;;;;;;;;;;5023519;28;20194;-80
2021/08/31 08:04:00;;;;;;;7.00;3.73;;;;;;;;;;5023853;28;20747;-80
2021/08/31 08:06:25;;;;;;;10.23;4.07;;;;;;;;;;5024236;28;20218;-80
2021/08/31 08:08:51;;;;;;;6.67;4.00;;;;;;;;;;5024497;28;20527;-80
2021/08/31 08:11:16;;;;;;;7.90;3.90;;;;;;;;;;5022464;28;20219;-80
2021/08/31 08:13:41;;;;;;;15.10;4.60;;;;;;;;;;5023801;28;20264;-80
2021/08/31 08:16:09;;;;;;;9.37;4.10;;;;;;;;;;5023091;28;20730;-80
2021/08/31 08:18:35;;;;;;;9.73;4.30;;;;;;;;;;5023973;28;20208;-80
2021/08/31 08:21:00;;;;;;;9.03;3.27;;;;;;;;;;5022745;28;20408;-80
2021/08/31 08:23:25;;;;;;;9.43;4.33;;;;;;;;;;5023667;28;20194;-80
2021/08/31 08:25:51;;;;;;;7.00;3.50;;;;;;;;;;5038583;28;20208;-80
2021/08/31 08:28:16;;;;;;;6.17;3.30;;;;;;;;;;5023038;28;20685;-80
2021/08/31 08:30:42;;;;;;;10.47;4.03;;;;;;;;;;5023584;28;20176;-80
2021/08/31 08:33:07;;;;;;;11.87;4.53;;;;;;;;;;5020688;28;20181;-80
2021/08/31 08:35:32;;;;;;;8.97;3.97;;;;;;;;;;5024912;28;20220;-80
2021/08/31 08:37:59;;;;;;;6.30;3.60;;;;;;;;;;5023741;28;20669;-80
2021/08/31 08:40:24;;;;;;;11.30;4.17;;;;;;;;;;5024293;28;20168;-80
2021/08/31 08:42:52;;;;;;;10.03;3.80;;;;;;;;;;5027145;28;20400;-79
2021/08/31 08:45:17;;;;;;;12.30;3.43;;;;;;;;;;5025056;28;20185;-79
2021/08/31 08:47:43;;;;;;;10.43;4.17;;;;;;;;;;5026204;28;20418;-79
2021/08/31 08:50:09;;;;;;;9.50;3.77;;;;;;;;;;5026102;28;20588;-80
2021/08/31 08:52:34;;;;;;;7.50;3.30;;;;;;;;;;5025365;28;20589;-80
2021/08/31 08:54:59;;;;;;;15.30;5.33;;;;;;;;;;5023489;28;20645;-80
2021/08/31 08:57:29;;;;;;;8.83;4.20;;;;;;;;;;5022767;28;20308;-80
2021/08/31 08:59:54;;;;;;;15.17;4.83;;;;;;;;;;5025277;28;20174;-80
2021/08/31 09:02:33;;;;;;;10.93;3.63;;;;;;;;;;5023384;28;20498;-80
2021/08/31 09:04:59;;;;;;;9.40;3.60;;;;;;;;;;5024230;28;20180;-80
2021/08/31 09:07:25;;;;;;;9.43;4.10;;;;;;;;;;5021812;28;20418;-80
2021/08/31 09:10:09;;;;;;;8.83;4.30;;;;;;;;;;5021128;28;20717;-80
2021/08/31 09:12:35;;;;;;;7.07;4.40;;;;;;;;;;5020972;28;20502;-80
2021/08/31 09:15:19;;;;;;;12.17;4.10;;;;;;;;;;5020874;28;20510;-80
2021/08/31 09:18:03;;;;;;;7.47;3.93;;;;;;;;;;5027948;28;20188;-79
2021/08/31 09:20:28;;;;;;;9.10;4.10;;;;;;;;;;5028493;28;20418;-80
2021/08/31 09:22:54;;;;;;;8.30;4.23;;;;;;;;;;5027891;28;20497;-80
2021/08/31 09:25:30;;;;;;;9.17;4.37;;;;;;;;;;5027630;28;20202;-79
2021/08/31 09:27:56;;;;;;;14.40;4.53;;;;;;;;;;5028059;28;20174;-80
2021/08/31 09:30:26;;;;;;;6.73;4.20;;;;;;;;;;5027181;28;20515;-80
2021/08/31 09:33:01;;;;;;;11.47;4.60;;;;;;;;;;5044307;28;20181;-80
2021/08/31 09:35:30;;;;;;;8.40;4.10;;;;;;;;;;5027180;28;20449;-80
2021/08/31 09:37:59;;;;;;;10.77;4.43;;;;;;;;;;5027089;28;20447;-80
2021/08/31 09:40:27;;;;;;;11.37;4.90;;;;;;;;;;5026213;28;20416;-80
2021/08/31 09:42:54;;;;;;;8.37;4.20;;;;;;;;;;5027678;28;20403;-80
2021/08/31 09:45:24;;;;;;;9.67;3.80;;;;;;;;;;5024788;28;20423;-80
2021/08/31 09:47:49;;;;;;;15.40;5.10;;;;;;;;;;5025237;28;20443;-79
2021/08/31 09:50:24;;;;;;;12.83;4.17;;;;;;;;;;5031908;28;20481;-80
2021/08/31 09:52:58;;;;;;;8.03;4.00;;;;;;;;;;5026479;28;20176;-80
2021/08/31 09:55:24;;;;;;;8.93;3.87;;;;;;;;;;5025528;28;20483;-80
2021/08/31 09:57:49;;;;;;;11.43;4.27;;;;;;;;;;5026958;28;20475;-79
2021/08/31 10:00:17;;;;;;;9.10;4.50;;;;;;;;;;5027315;28;20234;-80
2021/08/31 10:02:47;;;;;;;8.30;3.90;;;;;;;;;;5026988;28;20786;-80
2021/08/31 10:05:12;;;;;;;11.93;4.50;;;;;;;;;;5026728;28;20431;-80
2021/08/31 10:07:41;;;;;;;11.57;3.80;;;;;;;;;;5026878;28;20510;-79
2021/08/31 10:10:07;;;;;;;9.40;4.20;;;;;;;;;;5026142;28;20183;-80
2021/08/31 10:12:32;;;;;;;10.50;4.50;;;;;;;;;;5025899;28;20423;-79
2021/08/31 10:14:58;;;;;;;8.53;3.87;;;;;;;;;;5025764;28;20226;-80
2021/08/31 10:17:25;;;;;;;9.30;3.97;;;;;;;;;;5026560;28;20192;-80
2021/08/31 10:19:52;;;;;;;8.97;4.40;;;;;;;;;;5024060;28;20420;-80
2021/08/31 10:22:17;;;;;;;10.77;3.60;;;;;;;;;;5024554;28;20404;-80
2021/08/31 10:24:43;;;;;;;10.23;3.90;;;;;;;;;;5023639;28;20442;-79
2021/08/31 10:27:27;;;;;;;9.90;4.10;;;;;;;;;;5024222;28;20189;-79
2021/08/31 10:29:52;;;;;;;14.23;3.80;;;;;;;;;;5024949;28;20932;-80
2021/08/31 10:32:30;;;;;;;10.90;3.43;;;;;;;;;;5025196;28;20427;-80
2021/08/31 10:34:56;;;;;;;11.27;4.70;;;;;;;;;;5026776;28;20204;-80
2021/08/31 10:37:22;;;;;;;9.77;4.10;;;;;;;;;;5024770;28;20465;-80
2021/08/31 10:39:57;;;;;;;9.00;4.07;;;;;;;;;;5026838;28;20181;-80
2021/08/31 10:42:28;;;;;;;8.97;4.10;;;;;;;;;;5027032;28;20832;-80
2021/08/31 10:44:54;;;;;;;9.80;3.67;;;;;;;;;;5026810;28;20439;-80
2021/08/31 10:47:29;;;;;;;6.50;3.80;;;;;;;;;;5025673;28;20471;-80
2021/08/31 10:49:57;;;;;;;9.00;3.50;;;;;;;;;;5026288;28;20408;-80
2021/08/31 10:52:35;;;;;;;10.93;3.93;;;;;;;;;;5026410;28;20416;-80
2021/08/31 10:55:01;;;;;;;6.70;4.40;;;;;;;;;;5025917;28;20498;-80
2021/08/31 10:57:36;;;;;;;7.63;3.60;;;;;;;;;;5026403;28;20482;-80
2021/08/31 11:00:21;;;;;;;8.37;3.37;;;;;;;;;;5024086;28;21201;-80
2021/08/31 11:02:46;;;;;;;7.60;3.73;;;;;;;;;;5027714;28;20416;-80
2021/08/31 11:05:17;;;;;;;10.90;4.70;;;;;;;;;;5026315;28;20489;-80
2021/08/31 11:07:43;;;;;;;7.83;3.67;;;;;;;;;;5026292;28;20183;-80
2021/08/31 11:10:08;;;;;;;8.50;3.70;;;;;;;;;;5026707;28;20424;-80
2021/08/31 11:12:33;;;;;;;6.67;3.23;;;;;;;;;;5027073;28;20180;-80
2021/08/31 11:14:59;;;;;;;8.77;4.13;;;;;;;;;;5026576;28;20220;-80
2021/08/31 11:17:42;;;;;;;8.70;3.90;;;;;;;;;;5026288;28;20197;-80
2021/08/31 11:20:11;;;;;;;8.33;3.60;;;;;;;;;;5026267;28;20225;-80
2021/08/31 11:22:37;;;;;;;7.07;3.40;;;;;;;;;;5026476;28;20949;-80
2021/08/31 11:25:02;;;;;;;8.70;3.90;;;;;;;;;;5025199;28;20447;-80
2021/08/31 11:27:29;;;;;;;6.57;3.27;;;;;;;;;;5025122;28;20179;-80
2021/08/31 11:29:57;;;;;;;8.30;3.90;;;;;;;;;;5022142;28;20172;-80
2021/08/31 11:32:22;;;;;;;8.27;3.57;;;;;;;;;;5022411;28;20422;-80
2021/08/31 11:35:03;;;;;;;10.00;4.20;;;;;;;;;;5025435;28;20431;-80
2021/08/31 11:37:29;;;;;;;15.77;4.60;;;;;;;;;;5025723;28;20197;-80
2021/08/31 11:39:58;;;;;;;10.83;4.37;;;;;;;;;;5024619;28;20448;-80
2021/08/31 11:42:25;;;;;;;9.47;3.90;;;;;;;;;;5024622;28;20222;-80
2021/08/31 11:44:57;;;;;;;7.03;3.40;;;;;;;;;;5024518;28;20456;-80
2021/08/31 11:47:23;;;;;;;12.40;3.97;;;;;;;;;;5025809;28;20431;-80
2021/08/31 11:49:48;;;;;;;6.40;3.80;;;;;;;;;;5025664;28;20438;-80
2021/08/31 11:52:16;;;;;;;11.50;4.00;;;;;;;;;;5025415;28;20263;-80
2021/08/31 11:54:43;;;;;;;10.57;4.30;;;;;;;;;;5025339;28;20710;-80
2021/08/31 11:57:09;;;;;;;5.30;2.67;;;;;;;;;;5024523;28;20455;-80
2021/08/31 11:59:34;;;;;;;7.20;3.33;;;;;;;;;;5025618;28;20436;-80
2021/08/31 12:02:19;;;;;;;11.80;3.40;;;;;;;;;;5023644;28;20404;-80
2021/08/31 12:04:46;;;;;;;11.10;3.63;;;;;;;;;;5023196;28;20625;-80
2021/08/31 12:07:13;;;;;;;7.93;3.03;;;;;;;;;;5023618;28;20469;-80
2021/08/31 12:09:42;;;;;;;9.77;3.60;;;;;;;;;;5022883;28;20784;-80
2021/08/31 12:12:07;;;;;;;7.03;3.30;;;;;;;;;;5023977;28;20425;-80
2021/08/31 12:14:33;;;;;;;6.70;3.30;;;;;;;;;;5024485;28;20442;-80
2021/08/31 12:16:58;;;;;;;6.67;2.93;;;;;;;;;;5025125;28;20424;-80
2021/08/31 12:19:25;;;;;;;8.13;3.47;;;;;;;;;;5024359;28;20172;-80
2021/08/31 12:22:10;;;;;;;7.13;3.30;;;;;;;;;;5025938;28;20666;-80
2021/08/31 12:24:35;;;;;;;7.67;3.47;;;;;;;;;;5025088;28;20445;-80
2021/08/31 12:27:08;;;;;;;7.27;3.33;;;;;;;;;;5022644;28;20518;-80
2021/08/31 12:29:48;;;;;;;10.20;3.93;;;;;;;;;;5022339;28;20236;-80
2021/08/31 12:32:14;;;;;;;7.20;3.63;;;;;;;;;;5024972;28;20408;-80
2021/08/31 12:34:39;;;;;;;12.93;3.60;;;;;;;;;;5025650;28;20420;-80
2021/08/31 12:37:26;;;;;;;9.00;3.13;;;;;;;;;;5024108;28;20464;-80
2021/08/31 12:40:10;;;;;;;14.67;3.27;;;;;;;;;;5023777;28;20232;-80
2021/08/31 12:42:36;;;;;;;10.33;3.20;;;;;;;;;;5024935;28;20414;-80
2021/08/31 12:45:01;;;;;;;4.80;2.83;;;;;;;;;;5023618;28;20427;-80
2021/08/31 12:47:26;;;;;;;11.30;3.60;;;;;;;;;;5024595;28;20180;-80
2021/08/31 12:49:52;;;;;;;11.97;3.53;;;;;;;;;;5023160;28;20519;-80
2021/08/31 12:52:17;;;;;;;13.90;4.20;;;;;;;;;;5023421;28;20172;-80
2021/08/31 12:54:43;;;;;;;8.33;3.13;;;;;;;;;;5024190;28;20727;-80
2021/08/31 12:57:08;;;;;;;7.70;3.33;;;;;;;;;;5025587;28;20201;-80
2021/08/31 12:59:42;;;;;;;6.17;2.60;;;;;;;;;;5023475;28;20189;-80
2021/08/31 13:02:08;;;;;;;6.97;2.80;;;;;;;;;;5026325;28;20174;-80
2021/08/31 13:04:35;;;;;;;7.17;3.10;;;;;;;;;;5023969;28;20443;-80
2021/08/31 13:07:04;;;;;;;8.63;3.37;;;;;;;;;;5024218;28;20897;-80
2021/08/31 13:09:29;;;;;;;10.70;3.63;;;;;;;;;;5024605;28;20411;-80
2021/08/31 13:11:55;;;;;;;12.37;3.23;;;;;;;;;;5026214;28;20411;-80
2021/08/31 13:14:21;;;;;;;6.90;3.73;;;;;;;;;;5024311;28;20185;-80
2021/08/31 13:16:47;;;;;;;8.00;3.33;;;;;;;;;;5021295;28;20177;-80
2021/08/31 13:19:13;;;;;;;9.13;3.70;;;;;;;;;;5024533;28;20456;-80
2021/08/31 13:21:39;;;;;;;5.60;2.70;;;;;;;;;;5024116;28;20415;-80
2021/08/31 13:24:05;;;;;;;7.23;2.90;;;;;;;;;;5024273;28;20288;-80
2021/08/31 13:26:32;;;;;;;9.40;3.13;;;;;;;;;;5024449;28;20945;-80
2021/08/31 13:28:57;;;;;;;8.10;2.83;;;;;;;;;;5023614;28;20188;-80
2021/08/31 13:31:22;;;;;;;9.33;3.63;;;;;;;;;;5024529;28;20416;-80
2021/08/31 13:33:48;;;;;;;5.33;2.37;;;;;;;;;;5023796;28;20208;-80
2021/08/31 13:36:13;;;;;;;9.00;3.00;;;;;;;;;;5023495;28;20196;-80
2021/08/31 13:38:39;;;;;;;17.13;4.10;;;;;;;;;;5040376;28;20204;-79
2021/08/31 13:41:04;;;;;;;8.80;3.23;;;;;;;;;;5023965;28;20420;-80
2021/08/31 13:43:29;;;;;;;6.70;3.07;;;;;;;;;;5022286;28;20208;-80
2021/08/31 13:45:55;;;;;;;8.93;2.97;;;;;;;;;;5023785;28;20192;-80
2021/08/31 13:48:20;;;;;;;18.20;4.23;;;;;;;;;;5023688;28;20173;-80
2021/08/31 13:50:45;;;;;;;14.17;3.43;;;;;;;;;;5024780;28;20181;-80
2021/08/31 13:53:10;;;;;;;12.70;3.43;;;;;;;;;;5024381;28;20181;-80
2021/08/31 13:55:36;;;;;;;10.33;3.53;;;;;;;;;;5016515;28;20236;-80
2021/08/31 13:58:01;;;;;;;11.60;3.10;;;;;;;;;;5019482;28;20282;-80
2021/08/31 14:00:26;;;;;;;4.80;2.70;;;;;;;;;;5023449;28;20180;-80
2021/08/31 14:02:52;;;;;;;8.47;3.40;;;;;;;;;;5023968;28;20526;-80
2021/08/31 14:05:17;;;;;;;9.40;2.63;;;;;;;;;;5026738;28;20200;-80
2021/08/31 14:07:42;;;;;;;6.53;2.43;;;;;;;;;;5027581;28;20720;-80
2021/08/31 14:10:08;;;;;;;10.10;3.43;;;;;;;;;;5027548;28;20254;-80
2021/08/31 14:12:33;;;;;;;11.80;3.80;;;;;;;;;;5027128;28;20169;-80
2021/08/31 14:14:58;;;;;;;10.10;3.27;;;;;;;;;;5026822;28;20189;-80
2021/08/31 14:17:24;;;;;;;7.77;2.83;;;;;;;;;;5026930;28;20196;-80
2021/08/31 14:19:49;;;;;;;7.73;2.87;;;;;;;;;;5027457;28;20631;-80
2021/08/31 14:22:14;;;;;;;6.63;3.53;;;;;;;;;;5043485;28;20238;-80
2021/08/31 14:24:39;;;;;;;4.70;2.50;;;;;;;;;;5025390;28;20204;-80
2021/08/31 14:27:05;;;;;;;9.10;3.33;;;;;;;;;;5023962;28;20165;-80
2021/08/31 14:29:30;;;;;;;8.50;3.40;;;;;;;;;;5022342;28;20185;-80
2021/08/31 14:31:55;;;;;;;7.87;3.50;;;;;;;;;;5022528;28;20171;-80
2021/08/31 14:34:20;;;;;;;7.10;3.00;;;;;;;;;;5025284;28;20271;-80